Time;durP1;ratioP1;P1;durP2;ratioP2;P2;SDS_P1;SDS_P2;PMS_P1;PMS_P2;Temp;Humidity;BMP_temperature;BMP_pressure;BME280_temperature;BME280_humidity;BME280_pressure;Samples;Min_cycle;Max_cycle;Signal;HPM_P1;HPM_P2
2022/01/26 00:00:41;;;;;;;32.85;17.10;;;;;;;2.30;57.81;101626.75;5011710;28;20038;-72
2022/01/26 00:06:03;;;;;;;32.38;19.30;;;;;;;2.29;57.05;101620.44;5074220;28;20079;-72
2022/01/26 00:08:34;;;;;;;35.13;19.58;;;;;;;2.29;56.84;101619.59;5072864;28;20067;-72
2022/01/26 00:11:11;;;;;;;40.03;20.75;;;;;;;2.28;56.18;101628.94;5072586;28;20081;-72
2022/01/26 00:13:42;;;;;;;35.65;20.75;;;;;;;2.31;56.20;101622.91;5072571;28;20052;-72
2022/01/26 00:16:25;;;;;;;34.60;19.85;;;;;;;2.22;56.65;101616.28;5072244;28;20075;-72
2022/01/26 00:19:01;;;;;;;40.25;19.98;;;;;;;2.23;56.75;101615.19;5072324;28;20485;-72
2022/01/26 00:29:13;;;;;;;35.75;19.25;;;;;;;2.17;56.34;101613.53;5073659;28;20048;-72
2022/01/26 00:43:23;;;;;;;33.55;18.55;;;;;;;1.92;56.00;101562.97;5073285;28;20391;-71
2022/01/26 00:45:57;;;;;;;28.83;15.57;;;;;;;2.13;56.30;101609.66;5074456;28;20036;-71
2022/01/26 00:48:33;;;;;;;18.85;12.25;;;;;;;2.06;55.16;101604.44;5076198;28;20029;-71
2022/01/26 00:51:08;;;;;;;20.85;9.70;;;;;;;2.07;54.86;101617.91;5076426;28;20032;-71
2022/01/26 00:53:44;;;;;;;21.20;10.50;;;;;;;2.00;55.53;101598.13;5075746;28;20036;-71
2022/01/26 00:56:12;;;;;;;18.67;10.52;;;;;;;2.07;55.11;101612.41;5077267;28;20031;-72
2022/01/26 00:58:44;;;;;;;17.35;10.70;;;;;;;2.03;55.46;101616.81;5075649;28;20198;-71
2022/01/26 01:01:10;;;;;;;17.73;10.38;;;;;;;2.04;55.04;101601.97;5075168;28;20039;-71
2022/01/26 01:03:44;;;;;;;21.92;11.20;;;;;;;2.03;56.10;101605.81;5077563;28;20029;-71
2022/01/26 01:06:23;;;;;;;20.00;11.27;;;;;;;2.06;57.27;101610.75;5063142;28;20474;-72
2022/01/26 01:08:49;;;;;;;19.45;10.63;;;;;;;2.05;56.92;101609.13;5076977;28;20066;-71
2022/01/26 01:11:18;;;;;;;23.25;10.75;;;;;;;1.86;56.67;101572.28;5078991;28;20120;-71
2022/01/26 01:13:48;;;;;;;17.58;10.02;;;;;;;2.05;56.64;101603.63;5078979;28;20385;-71
2022/01/26 01:16:21;;;;;;;21.70;10.70;;;;;;;2.04;56.74;101592.94;5078725;28;20038;-71
2022/01/26 01:19:05;;;;;;;20.65;11.65;;;;;;;2.01;56.53;101601.69;5079009;28;20024;-72
2022/01/26 01:29:20;;;;;;;23.60;9.82;;;;;;;2.01;56.41;101602.50;5096848;28;20048;-71
2022/01/26 01:31:59;;;;;;;23.42;12.52;;;;;;;1.95;57.20;101592.63;5078567;28;20477;-71
2022/01/26 01:34:38;;;;;;;24.10;11.30;;;;;;;2.00;57.67;101595.38;5078508;28;20032;-71
2022/01/26 01:37:08;;;;;;;19.70;10.85;;;;;;;2.04;58.15;101593.75;5078731;28;20028;-71
2022/01/26 01:39:45;;;;;;;20.33;10.38;;;;;;;2.00;57.34;101587.13;5078436;28;20028;-71
2022/01/26 01:42:14;;;;;;;19.55;10.30;;;;;;;2.08;58.14;101589.38;5075858;28;20429;-72
2022/01/26 01:44:43;;;;;;;18.70;10.10;;;;;;;2.05;57.78;101589.06;5079784;28;20024;-71
2022/01/26 01:47:09;;;;;;;16.02;10.23;;;;;;;2.06;57.29;101585.22;5080120;28;20024;-71
2022/01/26 01:49:38;;;;;;;19.90;8.38;;;;;;;2.20;56.95;101588.28;5077969;28;20425;-71
2022/01/26 01:52:15;;;;;;;17.92;6.22;;;;;;;2.26;54.44;101592.69;5078129;28;20489;-71
2022/01/26 01:54:51;;;;;;;18.17;7.75;;;;;;;2.31;55.84;101589.94;5078332;28;20025;-71
2022/01/26 01:57:24;;;;;;;9.57;4.93;;;;;;;2.61;51.63;101594.63;5078296;28;20024;-71
2022/01/26 01:59:53;;;;;;;11.57;6.57;;;;;;;2.46;54.25;101584.47;5078286;28;20120;-71
2022/01/26 02:02:24;;;;;;;10.82;6.82;;;;;;;2.44;56.23;101589.38;5078556;28;20278;-72
2022/01/26 02:04:49;;;;;;;13.27;6.80;;;;;;;2.40;57.31;101581.97;5074202;28;20056;-72
2022/01/26 02:07:21;;;;;;;11.50;7.47;;;;;;;2.33;57.00;101579.50;5074473;28;20406;-72
2022/01/26 02:10:04;;;;;;;13.35;6.85;;;;;;;2.38;56.80;101587.75;5074989;28;20029;-72
2022/01/26 02:12:35;;;;;;;12.00;6.60;;;;;;;2.31;56.84;101573.47;5074384;28;20036;-72
2022/01/26 02:15:18;;;;;;;13.45;7.57;;;;;;;2.30;57.01;101571.81;5074305;28;20032;-72
2022/01/26 02:20:54;;;;;;;12.25;6.60;;;;;;;2.14;58.47;101565.47;5076009;28;20078;-72
2022/01/26 02:56:22;;;;;;;12.45;6.45;;;;;;;2.01;60.90;101550.34;5074648;28;20046;-71
2022/01/26 03:02:08;;;;;;;12.52;5.88;;;;;;;1.99;62.26;101547.06;4993437;28;20038;-72
2022/01/26 03:04:49;;;;;;;14.00;6.45;;;;;;;2.08;61.79;101542.69;5048762;28;20044;-72
2022/01/26 03:07:25;;;;;;;;;;;;;;;;;;;;;
2022/01/26 03:09:54;;;;;;;9.63;6.57;;;;;;;1.99;62.85;101541.56;5073658;28;20494;-72
2022/01/26 03:13:09;;;;;;;10.90;5.25;;;;;;;2.00;62.62;101539.66;5073489;28;20089;-72
2022/01/26 03:15:29;;;;;;;13.48;6.28;;;;;;;2.07;62.56;101541.03;5063565;28;20117;-72
2022/01/26 03:20:30;;;;;;;82.68;33.80;;;;;;;2.10;62.23;101531.44;5074290;28;20146;-72
2022/01/26 03:28:40;;;;;;;;;;;;;;;2.19;62.74;101526.22;5075008;28;20090;-72
2022/01/26 03:36:28;;;;;;;27.65;14.98;;;;;;;2.17;63.29;101533.91;5074023;28;20036;-72
2022/01/26 03:39:06;;;;;;;29.23;14.88;;;;;;;2.15;63.25;101539.66;5072692;28;20033;-72
2022/01/26 03:44:13;;;;;;;23.92;16.05;;;;;;;1.99;63.56;101508.63;5074159;28;20074;-72
2022/01/26 03:46:39;;;;;;;19.98;11.10;;;;;;;2.13;63.72;101533.63;5072779;28;20030;-72
2022/01/26 03:49:08;;;;;;;17.13;10.90;;;;;;;2.10;63.93;101528.69;5072514;28;20024;-72
2022/01/26 03:51:43;;;;;;;19.15;12.45;;;;;;;2.11;64.54;101527.56;5073036;28;20098;-72
2022/01/26 03:54:10;;;;;;;21.65;14.60;;;;;;;2.08;64.47;101530.88;5073214;28;20093;-72
2022/01/26 03:56:42;;;;;;;23.90;13.85;;;;;;;2.01;65.12;101520.16;5072514;28;20024;-72
2022/01/26 03:59:17;;;;;;;22.83;13.50;;;;;;;2.12;64.52;101531.16;5073984;28;20021;-72
2022/01/26 04:01:45;;;;;;;16.25;9.85;;;;;;;2.07;64.51;101532.78;5069852;28;20477;-72
2022/01/26 04:04:30;;;;;;;17.45;10.38;;;;;;;2.06;64.76;101511.91;5081241;28;20049;-72
2022/01/26 04:07:02;;;;;;;23.48;14.25;;;;;;;1.98;65.68;101525.38;5075977;28;20490;-72
2022/01/26 04:09:32;;;;;;;18.15;11.45;;;;;;;1.96;65.33;101528.38;5075951;28;20474;-72
2022/01/26 04:12:01;;;;;;;12.15;8.07;;;;;;;1.87;64.36;101521.81;5077341;28;20055;-72
2022/01/26 04:14:31;;;;;;;14.48;8.13;;;;;;;1.60;65.57;101497.31;5076523;28;20366;-72
2022/01/26 04:17:00;;;;;;;36.90;19.48;;;;;;;1.77;66.54;101514.38;5075532;28;20032;-72
2022/01/26 04:19:31;;;;;;;46.90;27.95;;;;;;;1.68;66.25;101515.97;5076237;28;20405;-72
2022/01/26 04:22:15;;;;;;;40.05;25.80;;;;;;;1.69;66.94;101512.13;5079733;28;20035;-72
2022/01/26 04:24:51;;;;;;;;;;;;;;;1.73;66.60;101512.44;5098590;28;20020;-72
2022/01/26 04:29:54;;;;;;;33.83;21.50;;;;;;;1.67;67.18;101513.53;5097513;28;20404;-72
2022/01/26 04:32:25;;;;;;;41.88;22.23;;;;;;;1.67;67.18;101502.53;5079749;28;20024;-72
2022/01/26 04:34:57;;;;;;;32.97;17.80;;;;;;;1.65;67.32;101505.56;5079974;28;20028;-72
2022/01/26 04:40:18;;;;;;;16.13;9.63;;;;;;;1.74;67.37;101511.34;5097948;28;20100;-72
2022/01/26 04:45:18;;;;;;;16.00;10.73;;;;;;;1.65;68.03;101499.22;5097786;28;20488;-72
2022/01/26 04:47:46;;;;;;;24.88;14.48;;;;;;;1.66;68.33;101503.66;5079485;28;20024;-72
2022/01/26 04:50:17;;;;;;;31.98;17.92;;;;;;;1.62;68.41;101505.28;5079650;28;20355;-72
2022/01/26 04:52:48;;;;;;;22.35;13.95;;;;;;;1.64;68.67;101508.56;5079110;28;20515;-72
2022/01/26 04:55:16;;;;;;;23.48;14.70;;;;;;;1.67;68.78;101508.03;5079085;28;20028;-72
2022/01/26 04:57:45;;;;;;;23.17;14.68;;;;;;;1.72;68.57;101519.03;5079165;28;20115;-72
2022/01/26 05:00:13;;;;;;;18.60;12.93;;;;;;;1.64;68.58;101509.38;5079262;28;20024;-72
2022/01/26 05:02:39;;;;;;;22.90;15.52;;;;;;;1.68;68.44;101523.41;5078904;28;20052;-72
2022/01/26 05:05:07;;;;;;;28.67;17.25;;;;;;;1.62;67.97;101513.50;5074919;28;20153;-72
2022/01/26 05:07:42;;;;;;;18.42;12.18;;;;;;;1.62;68.25;101513.50;5075472;28;20037;-72
2022/01/26 05:10:13;;;;;;;21.02;12.25;;;;;;;1.56;68.59;101518.97;5075772;28;20036;-72
2022/01/26 05:12:41;;;;;;;22.73;9.70;;;;;;;1.49;68.80;101515.69;5075666;28;20035;-72
2022/01/26 05:15:13;;;;;;;21.75;7.70;;;;;;;1.54;69.35;101520.31;5075342;28;20032;-72
2022/01/26 05:17:42;;;;;;;14.88;6.55;;;;;;;1.53;68.89;101518.69;5075290;28;20032;-72
2022/01/26 05:20:13;;;;;;;13.43;6.18;;;;;;;1.57;68.97;101520.63;5075817;28;20037;-72
2022/01/26 05:22:44;;;;;;;10.75;6.57;;;;;;;1.60;69.06;101529.41;5075550;28;20098;-72
2022/01/26 05:25:20;;;;;;;14.57;7.25;;;;;;;1.69;68.75;101527.78;5075742;28;20105;-72
2022/01/26 05:27:46;;;;;;;18.98;7.40;;;;;;;1.57;69.07;101514.31;5075069;28;20078;-72
2022/01/26 05:30:18;;;;;;;13.60;7.50;;;;;;;1.55;68.88;101517.34;5074876;28;20062;-72
2022/01/26 05:32:49;;;;;;;12.43;7.13;;;;;;;1.54;69.51;101515.66;5074637;28;20120;-72
2022/01/26 05:35:18;;;;;;;19.90;8.45;;;;;;;1.55;69.65;101516.50;5075433;28;20032;-72
2022/01/26 05:37:49;;;;;;;17.23;8.80;;;;;;;1.64;69.06;101522.28;5075170;28;20097;-72
2022/01/26 05:40:20;;;;;;;16.50;10.23;;;;;;;1.63;69.10;101528.88;5074837;28;20085;-72
2022/01/26 05:42:49;;;;;;;23.15;10.77;;;;;;;1.65;68.94;101522.03;5074392;28;20041;-72
2022/01/26 05:45:23;;;;;;;15.45;9.82;;;;;;;1.62;69.25;101527.22;5074767;28;20036;-72
2022/01/26 05:47:51;;;;;;;19.77;9.80;;;;;;;1.62;69.67;101530.78;5074821;28;20090;-72
2022/01/26 05:50:19;;;;;;;13.93;8.02;;;;;;;1.66;69.28;101525.59;5074558;28;20482;-72
2022/01/26 05:52:50;;;;;;;13.80;8.48;;;;;;;1.72;68.99;101530.81;5075015;28;20032;-72
2022/01/26 05:55:21;;;;;;;20.17;9.65;;;;;;;1.65;69.66;101512.94;5075503;28;20017;-72
2022/01/26 05:57:50;;;;;;;48.28;22.35;;;;;;;1.62;69.71;101521.75;5074457;28;20044;-72
2022/01/26 06:00:15;;;;;;;65.57;30.92;;;;;;;1.66;69.27;101517.38;5075237;28;20052;-72
2022/01/26 06:02:45;;;;;;;45.60;23.13;;;;;;;1.66;69.41;101520.13;5074587;28;20467;-72
2022/01/26 06:05:10;;;;;;;30.25;13.60;;;;;;;1.70;70.56;101523.94;5074201;28;20136;-72
2022/01/26 06:07:36;;;;;;;19.10;10.07;;;;;;;1.62;70.02;101516.25;5074449;28;20123;-72
2022/01/26 06:10:10;;;;;;;22.48;10.18;;;;;;;1.66;69.90;101526.41;5074149;28;20040;-72
2022/01/26 06:12:40;;;;;;;18.30;9.82;;;;;;;1.61;70.12;101528.31;5073894;28;20033;-72
2022/01/26 06:15:09;;;;;;;20.13;11.18;;;;;;;1.55;70.37;101528.31;5073594;28;20085;-73
2022/01/26 06:17:37;;;;;;;27.90;17.40;;;;;;;1.60;70.11;101526.66;5073469;28;20032;-73
2022/01/26 06:20:07;;;;;;;37.42;19.02;;;;;;;1.57;70.07;101528.84;5073332;28;20119;-73
2022/01/26 06:22:33;;;;;;;35.95;19.25;;;;;;;1.58;69.78;101530.50;5073697;28;20089;-73
2022/01/26 06:25:04;;;;;;;37.28;18.15;;;;;;;1.60;70.07;101524.75;5073524;28;20029;-73
2022/01/26 06:27:33;;;;;;;34.05;18.02;;;;;;;1.71;69.71;101525.59;5073233;28;20106;-73
2022/01/26 06:30:05;;;;;;;37.13;18.67;;;;;;;2.19;69.25;101515.25;5074387;28;20025;-72
2022/01/26 06:32:38;;;;;;;30.80;19.00;;;;;;;2.87;66.33;101530.25;5072933;28;20035;-73
2022/01/26 06:35:11;;;;;;;23.95;15.15;;;;;;;3.44;64.38;101528.16;5073754;28;20090;-73
2022/01/26 06:37:40;;;;;;;26.58;13.70;;;;;;;3.92;62.90;101525.69;5075174;28;20032;-73
2022/01/26 06:40:09;;;;;;;28.63;14.57;;;;;;;4.38;61.57;101528.91;5074718;28;20498;-72
2022/01/26 06:42:59;;;;;;;25.67;16.25;;;;;;;4.84;58.97;101527.66;5072535;28;20063;-73
2022/01/26 06:45:33;;;;;;;35.72;17.63;;;;;;;5.41;57.25;101532.22;5074061;28;20028;-73
2022/01/26 06:50:51;;;;;;;101.18;46.28;;;;;;;6.44;54.21;101534.34;5075327;28;20227;-73
2022/01/26 06:53:16;;;;;;;121.47;60.13;;;;;;;6.86;52.85;101535.28;5073266;28;20033;-73
2022/01/26 06:55:47;;;;;;;103.70;52.65;;;;;;;7.39;51.48;101527.31;5073388;28;20134;-73
2022/01/26 06:58:18;;;;;;;88.53;49.65;;;;;;;7.81;49.76;101533.63;5073457;28;20025;-73
2022/01/26 07:00:49;;;;;;;88.30;52.40;;;;;;;8.21;48.89;101528.28;5073729;28;20024;-73
2022/01/26 07:03:20;;;;;;;75.45;47.22;;;;;;;8.49;47.48;101531.75;5072239;28;20490;-73
2022/01/26 07:05:49;;;;;;;67.20;43.22;;;;;;;8.98;46.31;101532.69;5072703;28;20519;-73
2022/01/26 07:08:18;;;;;;;52.60;34.50;;;;;;;9.34;45.22;101538.88;5073102;28;20028;-73
2022/01/26 07:10:51;;;;;;;46.85;29.75;;;;;;;9.66;44.19;101520.19;5073649;28;20060;-73
2022/01/26 07:13:25;;;;;;;39.90;26.67;;;;;;;10.26;43.22;101538.06;5072757;28;20123;-73
2022/01/26 07:21:28;;;;;;;41.72;25.65;;;;;;;11.22;41.19;101537.53;5074452;28;20158;-72
2022/01/26 07:23:58;;;;;;;39.70;26.88;;;;;;;11.46;39.63;101530.53;5072944;28;20104;-72
2022/01/26 07:26:29;;;;;;;41.05;26.77;;;;;;;11.63;39.80;101533.22;5073156;28;20454;-72
2022/01/26 07:29:05;;;;;;;52.35;30.52;;;;;;;12.03;39.54;101530.00;5072903;28;20028;-72
2022/01/26 07:31:41;;;;;;;49.25;30.40;;;;;;;12.43;37.95;101538.72;5072930;28;20077;-72
2022/01/26 07:34:07;;;;;;;39.10;26.40;;;;;;;12.83;37.46;101536.16;5072720;28;20489;-72
2022/01/26 07:36:41;;;;;;;49.63;27.23;;;;;;;13.12;36.93;101534.34;5073246;28;20025;-73
2022/01/26 07:39:11;;;;;;;43.50;26.17;;;;;;;13.60;35.94;101532.78;5074155;28;20546;-73
2022/01/26 07:41:37;;;;;;;49.25;28.30;;;;;;;13.65;35.12;101526.13;5073398;28;20035;-73
2022/01/26 07:44:03;;;;;;;36.20;22.55;;;;;;;13.92;35.02;101532.97;5073212;28;20360;-73
2022/01/26 07:46:29;;;;;;;42.15;22.58;;;;;;;14.18;34.12;101535.34;5072679;28;20032;-73
2022/01/26 07:49:02;;;;;;;50.65;25.23;;;;;;;14.27;33.91;101538.78;5072937;28;20047;-73
2022/01/26 07:51:30;;;;;;;48.03;27.52;;;;;;;14.19;33.80;101531.38;5072599;28;20027;-73
2022/01/26 07:54:02;;;;;;;35.35;23.33;;;;;;;14.56;33.39;101535.69;5072086;28;20071;-73
2022/01/26 07:56:29;;;;;;;31.63;17.52;;;;;;;14.85;32.66;101536.47;5072546;28;20025;-73
2022/01/26 07:58:58;;;;;;;28.70;17.52;;;;;;;14.81;33.31;101530.78;5072998;28;20028;-73
2022/01/26 08:01:30;;;;;;;27.02;16.50;;;;;;;15.17;32.60;101528.88;5072993;28;20027;-73
2022/01/26 08:03:56;;;;;;;13.57;10.93;;;;;;;15.24;31.98;101534.69;5071967;28;20044;-73
2022/01/26 08:28:14;;;;;;;16.73;12.55;;;;;;;13.74;33.70;101537.97;5102416;27;1582804;-81
2022/01/26 08:30:41;;;;;;;12.43;8.38;;;;;;;14.36;31.40;101533.88;5122131;28;20031;-79
2022/01/26 08:33:17;;;;;;;12.45;8.52;;;;;;;14.66;31.06;101535.16;5116869;28;20493;-76
2022/01/26 08:35:43;;;;;;;19.67;13.60;;;;;;;14.25;31.33;101524.34;5111551;28;20477;-79
2022/01/26 08:38:09;;;;;;;18.13;8.52;;;;;;;13.71;31.72;101535.91;5110966;28;20031;-78
2022/01/26 08:40:35;;;;;;;17.50;11.85;;;;;;;13.16;33.81;101545.66;5110137;28;20440;-76
2022/01/26 08:43:04;;;;;;;22.08;13.27;;;;;;;13.74;32.93;101532.38;5110538;28;20032;-76
2022/01/26 08:45:32;;;;;;;30.65;19.45;;;;;;;13.76;33.20;101530.06;5110966;28;20032;-78
2022/01/26 08:47:57;;;;;;;25.95;16.00;;;;;;;13.57;33.54;101511.91;5111577;28;20028;-76
2022/01/26 08:50:23;;;;;;;31.85;18.42;;;;;;;14.01;33.28;101536.41;5111583;28;20069;-77
2022/01/26 08:52:51;;;;;;;32.83;17.15;;;;;;;14.24;31.72;101522.72;5110872;28;20028;-77
2022/01/26 08:55:20;;;;;;;21.08;14.85;;;;;;;14.54;30.61;101538.03;5110751;28;20549;-76
2022/01/26 08:57:49;;;;;;;21.67;12.68;;;;;;;14.24;31.00;101511.53;5110282;28;20027;-78
2022/01/26 09:00:16;;;;;;;23.70;12.48;;;;;;;14.60;31.21;101542.22;5110322;28;20119;-78
2022/01/26 09:02:46;;;;;;;21.85;12.95;;;;;;;14.66;30.88;101546.38;5110782;28;20032;-78
2022/01/26 09:05:13;;;;;;;17.73;10.68;;;;;;;14.71;30.66;101547.31;5109357;28;20059;-76
2022/01/26 09:07:42;;;;;;;20.33;10.25;;;;;;;14.99;30.73;101548.06;5109009;28;20028;-79
2022/01/26 09:10:09;;;;;;;19.13;11.07;;;;;;;15.04;30.50;101550.59;5109280;28;20103;-79
2022/01/26 09:12:37;;;;;;;21.13;11.30;;;;;;;15.33;30.68;101549.31;5109474;28;20089;-79
2022/01/26 09:15:06;;;;;;;15.88;11.88;;;;;;;15.69;29.69;101536.22;5109111;28;20023;-77
2022/01/26 09:17:35;;;;;;;25.90;12.90;;;;;;;14.19;31.31;101543.38;5109401;28;20032;-78
2022/01/26 09:20:03;;;;;;;28.23;18.70;;;;;;;14.18;31.31;101550.16;5109619;28;20123;-78
2022/01/26 09:22:34;;;;;;;15.40;10.73;;;;;;;14.29;31.02;101553.28;5110441;28;20032;-76
2022/01/26 09:25:00;;;;;;;18.88;12.55;;;;;;;14.21;31.39;101548.63;5110599;28;20024;-78
2022/01/26 09:27:29;;;;;;;19.60;12.70;;;;;;;14.20;31.24;101547.00;5109655;28;20119;-78
2022/01/26 09:29:54;;;;;;;18.85;10.93;;;;;;;13.56;31.89;101552.22;5110610;28;20073;-78
2022/01/26 09:32:21;;;;;;;16.60;11.77;;;;;;;13.80;31.29;101550.59;5110986;28;20028;-78
2022/01/26 09:34:49;;;;;;;12.05;8.63;;;;;;;13.95;30.91;101547.03;5112308;28;20024;-75
2022/01/26 09:37:17;;;;;;;17.65;9.82;;;;;;;14.60;31.02;101553.41;5110398;28;20084;-77
2022/01/26 09:39:45;;;;;;;24.63;14.90;;;;;;;14.75;29.93;101551.00;5097396;28;20063;-77
2022/01/26 09:42:11;;;;;;;24.15;13.20;;;;;;;14.40;30.44;101548.78;5096642;28;20024;-78
2022/01/26 09:44:38;;;;;;;23.70;13.82;;;;;;;14.33;30.62;101548.59;5095938;28;20111;-76
2022/01/26 09:47:13;;;;;;;9.85;6.82;;;;;;;13.83;30.29;101550.69;5080343;28;20036;-76
2022/01/26 09:49:39;;;;;;;14.35;7.30;;;;;;;14.65;29.82;101546.75;5097789;28;20031;-77
2022/01/26 09:52:15;;;;;;;12.50;9.95;;;;;;;15.01;28.30;101559.72;5080194;28;20028;-78
2022/01/26 09:54:42;;;;;;;9.50;6.55;;;;;;;13.94;29.41;101558.59;5098878;28;20111;-78
2022/01/26 09:57:08;;;;;;;8.20;5.40;;;;;;;13.10;30.92;101537.50;5096319;28;20028;-76
2022/01/26 09:59:38;;;;;;;11.10;6.45;;;;;;;13.85;30.64;101533.56;5095869;28;20085;-76
2022/01/26 10:02:04;;;;;;;12.25;7.07;;;;;;;14.72;29.70;101537.72;5095872;28;20028;-77
2022/01/26 10:04:35;;;;;;;10.63;8.60;;;;;;;14.65;29.19;101532.75;5095524;28;20038;-78
2022/01/26 10:07:13;;;;;;;13.10;7.32;;;;;;;15.42;28.75;101527.53;5094926;28;20139;-79
2022/01/26 10:15:28;;;;;;;21.33;13.95;;;;;;;13.99;30.33;101505.19;5098202;28;20047;-78
2022/01/26 10:18:13;;;;;;;29.23;18.52;;;;;;;14.94;30.71;101520.31;5098427;28;20046;-78
2022/01/26 10:20:42;;;;;;;16.00;10.65;;;;;;;14.45;30.39;101511.34;5096840;28;20036;-77
2022/01/26 10:23:17;;;;;;;11.80;8.80;;;;;;;14.61;30.50;101510.22;5097047;28;20123;-77
2022/01/26 10:26:24;;;;;;;11.68;8.35;;;;;;;13.77;31.57;101512.13;5107582;28;20106;-76
2022/01/26 10:28:51;;;;;;;10.38;8.68;;;;;;;14.00;31.37;101504.00;5018745;28;20487;-78
2022/01/26 10:31:20;;;;;;;13.48;10.00;;;;;;;13.86;31.65;101496.03;5080555;28;20456;-78
2022/01/26 10:33:55;;;;;;;14.10;8.55;;;;;;;13.56;32.35;101503.88;5095973;28;20054;-78
2022/01/26 10:36:23;;;;;;;14.68;9.80;;;;;;;13.06;32.87;101496.63;5095125;28;20039;-77
2022/01/26 10:39:02;;;;;;;25.65;14.02;;;;;;;12.89;33.39;101491.25;5095136;28;20032;-78
2022/01/26 10:41:28;;;;;;;21.33;14.25;;;;;;;13.13;33.02;101498.84;5095227;28;20027;-78
2022/01/26 10:43:58;;;;;;;18.15;10.93;;;;;;;13.50;32.30;101489.31;5094902;28;20122;-77
2022/01/26 10:46:37;;;;;;;15.45;8.85;;;;;;;14.00;31.23;101490.84;5095133;28;20028;-76
2022/01/26 10:49:19;;;;;;;11.13;8.70;;;;;;;14.65;30.66;101488.72;5093831;28;20085;-79
2022/01/26 10:56:54;;;;;;;18.20;9.93;;;;;;;13.95;31.44;101477.09;5096906;28;20044;-77
2022/01/26 10:59:20;;;;;;;18.10;12.93;;;;;;;14.19;32.07;101464.19;5097047;28;20470;-78
2022/01/26 11:01:48;;;;;;;17.00;13.40;;;;;;;14.23;31.43;101470.72;5096624;28;20028;-77
2022/01/26 11:04:17;;;;;;;13.65;10.90;;;;;;;14.25;31.44;101474.78;5096439;28;20028;-78
2022/01/26 11:06:50;;;;;;;19.35;10.68;;;;;;;14.50;30.85;101463.50;5096542;28;20028;-77
2022/01/26 11:09:23;;;;;;;16.08;11.98;;;;;;;14.78;30.94;101457.84;5095854;28;20032;-78
2022/01/26 11:12:06;;;;;;;24.63;15.48;;;;;;;14.44;30.80;101454.50;5095275;28;20377;-76
2022/01/26 11:14:47;;;;;;;14.25;10.02;;;;;;;14.92;30.02;101441.38;5095267;28;20032;-76
2022/01/26 11:17:28;;;;;;;14.90;10.20;;;;;;;15.23;30.28;101434.09;5079186;28;20095;-77
2022/01/26 11:19:58;;;;;;;24.45;15.25;;;;;;;15.12;30.13;101422.63;5095001;28;20036;-75
2022/01/26 11:22:31;;;;;;;21.55;15.13;;;;;;;15.16;30.04;101434.75;5094262;28;20051;-78
2022/01/26 11:25:20;;;;;;;19.45;11.95;;;;;;;15.08;30.34;101433.78;5094499;28;20046;-76
2022/01/26 11:27:49;;;;;;;30.30;12.50;;;;;;;15.53;29.60;101432.41;5094371;28;20056;-77
2022/01/26 11:30:32;;;;;;;16.40;11.38;;;;;;;15.11;30.51;101426.63;5094693;28;20101;-79
2022/01/26 11:32:59;;;;;;;15.05;10.30;;;;;;;15.06;32.10;101433.31;5093760;28;20085;-78
2022/01/26 11:35:29;;;;;;;13.95;10.50;;;;;;;15.22;32.28;101426.88;5093533;28;20489;-78
2022/01/26 11:38:28;;;;;;;16.85;10.82;;;;;;;14.61;33.79;101426.19;5093112;28;20118;-76
2022/01/26 11:46:33;;;;;;;14.25;9.43;;;;;;;14.91;34.82;101400.50;5098956;28;20077;-78
2022/01/26 11:49:11;;;;;;;15.77;10.30;;;;;;;15.10;35.04;101402.59;5095110;28;20036;-76
2022/01/26 11:51:41;;;;;;;21.35;9.90;;;;;;;14.97;35.62;101399.09;5094568;28;20028;-77
2022/01/26 11:54:17;;;;;;;14.95;10.00;;;;;;;15.34;35.16;101390.31;5097345;28;20061;-78
2022/01/26 11:57:15;;;;;;;18.10;9.18;;;;;;;14.76;36.60;101387.34;5104321;28;20038;-77
2022/01/26 11:59:51;;;;;;;16.15;10.13;;;;;;;14.39;38.06;101390.38;5084215;28;20075;-78
2022/01/26 12:02:41;;;;;;;14.52;10.05;;;;;;;14.56;37.94;101378.84;5099784;28;20024;-78
2022/01/26 12:05:13;;;;;;;15.63;9.10;;;;;;;14.06;38.70;101388.69;5109590;28;20024;-77
2022/01/26 12:07:59;;;;;;;11.10;7.60;;;;;;;13.43;40.68;101380.06;5106265;28;20024;-78
2022/01/26 12:10:30;;;;;;;11.27;8.15;;;;;;;13.70;39.74;101381.25;5105297;28;20119;-78
2022/01/26 12:13:16;;;;;;;14.50;9.63;;;;;;;13.55;40.33;101380.03;5102213;28;20032;-78
2022/01/26 12:18:30;;;;;;;14.02;9.18;;;;;;;12.47;42.63;101365.78;5104725;28;20035;-78
2022/01/26 12:37:33;;;;;;;12.02;8.77;;;;;;;12.09;44.50;101357.66;5102927;28;20054;-79
2022/01/26 12:45:22;;;;;;;16.67;10.98;;;;;;;11.75;46.16;101331.72;5097436;28;20359;-78
2022/01/26 12:47:59;;;;;;;12.40;9.10;;;;;;;11.97;46.48;101325.78;5098785;28;20024;-78
2022/01/26 12:50:28;;;;;;;17.77;9.07;;;;;;;12.03;45.74;101318.81;5100808;28;20107;-79
2022/01/26 12:52:57;;;;;;;17.00;10.75;;;;;;;12.42;44.49;101310.19;5099287;28;20031;-78
2022/01/26 12:55:30;;;;;;;15.43;8.20;;;;;;;12.26;44.54;101318.41;5098868;28;20032;-78
2022/01/26 12:57:56;;;;;;;18.45;10.52;;;;;;;12.14;44.35;101298.84;5102633;28;20036;-80
2022/01/26 13:00:36;;;;;;;14.00;9.75;;;;;;;12.33;45.39;101293.53;5100776;28;20111;-79
2022/01/26 13:03:13;;;;;;;10.45;7.90;;;;;;;12.37;45.35;101302.84;5098873;28;20031;-79
2022/01/26 13:05:39;;;;;;;13.80;9.30;;;;;;;12.43;44.57;101297.84;5099823;28;20074;-80
2022/01/26 13:08:06;;;;;;;14.48;7.63;;;;;;;12.67;44.02;101289.44;5099160;28;20028;-80
2022/01/26 13:10:35;;;;;;;13.93;8.13;;;;;;;12.74;44.06;101300.88;5099252;28;20048;-79
2022/01/26 13:13:18;;;;;;;16.75;8.90;;;;;;;12.84;43.80;101299.59;5101048;28;20104;-79
2022/01/26 13:15:51;;;;;;;15.85;8.23;;;;;;;12.98;43.34;101294.41;5102541;28;20024;-77
2022/01/26 13:18:26;;;;;;;16.67;8.68;;;;;;;12.84;43.29;101294.81;5103285;28;20058;-75
2022/01/26 13:21:32;;;;;;;14.50;8.40;;;;;;;12.65;43.57;101293.78;5107587;28;20024;-79
2022/01/26 13:23:54;;;;;;;18.85;8.80;;;;;;;12.83;43.16;101297.94;5108833;28;20031;-78
2022/01/26 13:26:35;;;;;;;13.38;8.57;;;;;;;12.48;45.05;101289.25;5107686;28;20038;-81
2022/01/26 13:32:29;;;;;;;9.63;7.63;;;;;;;12.25;44.42;101298.09;5066282;28;20044;-81
2022/01/26 13:40:13;;;;;;;10.50;6.90;;;;;;;12.33;44.76;101293.53;5110774;28;20082;-80
2022/01/26 13:43:17;;;;;;;9.82;7.30;;;;;;;12.25;44.39;101286.91;5107256;28;20032;-79
2022/01/26 13:48:41;;;;;;;10.65;8.52;;;;;;;12.12;45.04;101284.44;5108458;28;20044;-78
2022/01/26 13:53:58;;;;;;;14.55;8.27;;;;;;;12.12;45.18;101278.88;5107319;28;20042;-80
2022/01/26 13:59:11;;;;;;;12.93;8.15;;;;;;;12.29;44.71;101284.22;5108432;28;20035;-80
2022/01/26 14:01:42;;;;;;;47.30;23.33;;;;;;;12.42;44.76;101280.28;5107287;28;20458;-79
2022/01/26 14:04:08;;;;;;;12.82;9.25;;;;;;;11.89;45.85;101282.09;5105593;28;20024;-79
2022/01/26 14:06:36;;;;;;;12.43;7.47;;;;;;;11.85;46.17;101274.75;5105838;28;20050;-80
2022/01/26 14:09:03;;;;;;;13.60;8.10;;;;;;;11.97;45.97;101281.16;5107967;28;20024;-79
2022/01/26 14:11:34;;;;;;;11.68;7.85;;;;;;;12.06;45.79;101276.31;5108019;28;20032;-78
2022/01/26 14:14:01;;;;;;;17.80;12.00;;;;;;;12.29;45.55;101278.66;5108765;28;20032;-80
2022/01/26 14:16:32;;;;;;;13.65;8.38;;;;;;;12.05;46.17;101277.47;5108066;28;20028;-78
2022/01/26 14:19:09;;;;;;;11.93;7.75;;;;;;;12.21;45.43;101271.22;5110534;28;20051;-78
2022/01/26 14:24:28;;;;;;;11.98;9.18;;;;;;;11.92;46.40;101261.84;5109988;28;20043;-78
2022/01/26 14:26:59;;;;;;;;;;;;;;;11.73;46.76;101269.94;5110215;28;20062;-78
2022/01/26 14:29:39;;;;;;;15.88;9.18;;;;;;;11.92;45.97;101264.66;5113196;28;19911;-78
2022/01/26 14:32:21;;;;;;;15.00;9.13;;;;;;;11.66;47.30;101264.91;5112812;28;20028;-80
2022/01/26 15:49:53;;;;;;;22.58;13.75;;;;;;;9.71;54.13;101284.59;5123875;28;20046;-79
2022/01/26 15:52:49;;;;;;;32.33;17.67;;;;;;;9.72;54.40;101288.19;5104326;28;20016;-78
2022/01/26 16:16:54;;;;;;;47.65;27.13;;;;;;;8.82;57.79;101296.38;5123924;28;20098;-81
2022/01/26 16:35:08;;;;;;;77.10;50.13;;;;;;;8.34;59.37;101292.47;5120823;28;20434;-79
2022/01/26 17:43:50;;;;;;;221.90;127.80;;;;;;;6.57;65.86;101342.78;5127958;28;20074;-78